Palm Springs North, Florida
Current Conditions -  °F | °C
As of 8:53 AM on Wednesday 22 Oct 2014 (Local Time) from KOPF Reporting Station
Clear Clear  
Wind Chill: 76°   Ceiling: Unl
Heat Index: 76°   Visibility: 10mi
Dew Point: 72°   Wind: 3mph
Humidity: 87%   Direction: 10°N
Pressure: 29.97"   Gusts: NA
Location:  25.9357°N, 80.3817°W
Report Text: KOPF 221253Z 01003KT 10SM CLR 24/22 A2997 RMK AO2 SLP150 T02440222
Loading
Personal Weather Stations






























Interactive Weather Map New forecast layout! Learn more

10-Day Weather Forecast

Advertisements
Track Severe Weather on mobile